N4XWC Weather Reports


Display with metric or nautical units.
time (UTC)temp
F
wind
direction
speed
MPH
gust
MPH
rain 1hr
in
rain 24hr
in
rain mn
in
humidity
%
barometer
mb
20210121201641 49 323 3.0 3.0 0.00 0.14 0.10 100 1014.6
20210121201137 49 323 3.0 3.0 0.00 0.14 0.10 100 1014.4
20210121201021 49 304 3.0 5.0 0.00 0.14 0.10 100 1014.4
20210121200637 49 320 1.0 3.0 0.00 0.14 0.10 100 1014.4
20210121200138 49 309 3.0 5.0 0.00 0.14 0.10 100 1014.4
20210121200022 49 347 2.0 4.0 0.00 0.14 0.10 100 1014.4
20210121195635 49 287 5.0 5.0 0.00 0.14 0.10 100 1014.4
20210121195136 49 316 6.0 7.0 0.00 0.14 0.10 100 1014.4
20210121195020 49 329 5.0 7.0 0.00 0.14 0.10 100 1014.4
20210121194635 49 326 2.0 7.0 0.00 0.14 0.10 100 1014.4
20210121194135 49 299 3.0 4.0 0.00 0.14 0.10 100 1014.4
20210121194018 49 0 1.0 5.0 0.00 0.14 0.10 100 1014.4
20210121193637 49 0 2.0 7.0 0.00 0.14 0.10 100 1014.4
20210121193137 49 354 0.0 2.0 0.00 0.14 0.10 100 1014.4
20210121193022 49 354 2.0 2.0 0.00 0.14 0.10 100 1014.4
20210121192635 49 356 5.0 7.0 0.00 0.14 0.10 100 1014.7
20210121192140 49 356 5.0 9.0 0.00 0.14 0.10 100 1014.7
20210121192019 49 344 3.0 5.0 0.00 0.14 0.10 100 1014.7
20210121191636 49 326 5.0 9.0 0.00 0.14 0.10 100 1014.7
20210121191136 49 298 3.0 6.0 0.00 0.14 0.10 100 1014.7
20210121191021 49 329 4.0 4.0 0.00 0.14 0.10 100 1014.7
20210121190636 49 332 4.0 6.0 0.00 0.14 0.10 100 1014.7
20210121190138 49 316 2.0 6.0 0.00 0.14 0.10 100 1014.7
20210121190024 49 350 3.0 6.0 0.00 0.14 0.10 100 1014.7
20210121185637 49 0 5.0 7.0 0.00 0.14 0.10 100 1014.9
20210121185135 49 311 6.0 6.0 0.00 0.14 0.10 100 1014.9
20210121185021 49 308 2.0 7.0 0.00 0.14 0.10 100 1014.9
20210121184637 49 31 1.0 2.0 0.00 0.14 0.10 100 1014.9
20210121184136 49 330 3.0 4.0 0.00 0.14 0.10 100 1014.9
20210121184020 49 18 0.0 3.0 0.00 0.14 0.10 100 1014.9
20210121183638 49 0 6.0 6.0 0.00 0.14 0.10 100 1014.9
20210121183135 49 335 2.0 5.0 0.00 0.14 0.10 100 1014.9
20210121183034 49 337 3.0 3.0 0.00 0.14 0.10 100 1014.9
20210121182640 49 322 2.0 3.0 0.00 0.14 0.10 100 1014.9
20210121182136 49 305 2.0 4.0 0.00 0.14 0.10 100 1014.9
20210121182016 49 250 3.0 6.0 0.00 0.14 0.10 100 1014.9
20210121181637 49 316 3.0 3.0 0.00 0.14 0.10 100 1014.9
20210121181136 49 299 3.0 3.0 0.00 0.14 0.10 100 1015.4
20210121181019 49 302 1.0 3.0 0.00 0.14 0.10 100 1015.4
20210121180636 49 305 3.0 10.0 0.00 0.14 0.10 100 1015.4
20210121180135 49 301 3.0 10.0 0.00 0.14 0.10 100 1015.4
20210121180121 40 309 1.0 3.0 0.00 0.00 0.00 56 1015.9
20210121180021 49 299 9.0 9.0 0.00 0.14 0.10 100 1015.4
20210121175637 49 274 4.0 4.0 0.00 0.14 0.10 100 1015.4
20210121175136 49 299 4.0 6.0 0.00 0.14 0.10 100 1015.4
20210121175022 49 263 3.0 5.0 0.00 0.14 0.10 100 1015.4
20210121174637 49 243 0.0 2.0 0.00 0.14 0.10 100 1015.4
20210121174136 49 298 4.0 6.0 0.00 0.14 0.10 100 1016.0
20210121174025 49 260 3.0 3.0 0.00 0.14 0.10 100 1016.0
20210121173637 49 224 4.0 5.0 0.00 0.14 0.10 100 1016.0
20210121173140 49 288 1.0 4.0 0.00 0.14 0.10 100 1016.0
20210121173029 49 285 5.0 5.0 0.00 0.14 0.10 100 1016.0
20210121172636 49 246 1.0 5.0 0.00 0.14 0.10 100 1015.9
20210121172136 49 256 1.0 3.0 0.01 0.14 0.10 100 1015.9
20210121172024 49 256 2.0 6.0 0.01 0.14 0.10 100 1015.9
20210121171639 49 264 1.0 3.0 0.01 0.14 0.10 100 1015.9
20210121171135 49 281 3.0 6.0 0.01 0.14 0.10 100 1016.0
20210121171020 49 306 3.0 4.0 0.01 0.14 0.10 100 1016.0
20210121170636 49 258 6.0 6.0 0.01 0.14 0.10 100 1016.0
20210121170136 49 298 2.0 4.0 0.01 0.14 0.10 100 1016.0
20210121170024 49 264 1.0 3.0 0.01 0.14 0.10 100 1016.0
20210121165635 49 258 5.0 5.0 0.01 0.14 0.10 100 1016.5
20210121165137 49 287 7.0 7.0 0.02 0.14 0.10 100 1016.5
20210121165021 49 277 5.0 6.0 0.02 0.14 0.10 100 1016.5
20210121164639 49 280 2.0 2.0 0.02 0.14 0.10 100 1016.5
20210121164136 48 261 5.0 9.0 0.02 0.14 0.10 100 1016.6
20210121164021 48 247 5.0 6.0 0.02 0.14 0.10 100 1016.6
20210121163636 48 274 3.0 3.0 0.02 0.14 0.10 100 1016.6
20210121163138 48 267 3.0 4.0 0.02 0.14 0.10 100 1016.6
20210121163020 48 336 0.0 3.0 0.02 0.14 0.10 100 1016.6
20210121162636 48 271 1.0 4.0 0.02 0.14 0.10 100 1016.8
20210121162135 48 281 3.0 3.0 0.02 0.14 0.10 100 1016.8
20210121162020 47 281 1.0 2.0 0.02 0.14 0.10 100 1016.8
20210121161637 47 282 2.0 3.0 0.01 0.13 0.09 100 1016.8
20210121161138 47 329 0.0 2.0 0.01 0.13 0.09 100 1017.2
20210121161020 47 329 0.0 2.0 0.01 0.13 0.09 100 1017.2
20210121160637 47 295 3.0 4.0 0.01 0.13 0.09 100 1017.2
20210121160136 46 325 2.0 3.0 0.02 0.13 0.09 100 1017.2
20210121160020 46 326 3.0 3.0 0.02 0.13 0.09 100 1017.2
20210121155637 46 306 1.0 2.0 0.02 0.13 0.09 100 1017.5
20210121155137 46 319 3.0 3.0 0.02 0.13 0.09 100 1017.5
20210121155011 46 319 1.0 2.0 0.02 0.13 0.09 100 1017.5
20210121154636 46 320 3.0 5.0 0.02 0.13 0.09 100 1017.5
20210121154136 46 340 5.0 6.0 0.02 0.12 0.08 100 1017.3
20210121154019 46 347 3.0 5.0 0.02 0.12 0.08 100 1017.3
20210121153636 46 305 2.0 4.0 0.02 0.12 0.08 100 1017.3
20210121153138 46 296 4.0 5.0 0.03 0.12 0.08 100 1017.3
20210121153025 46 353 5.0 7.0 0.03 0.12 0.08 100 1017.3
20210121152635 46 335 5.0 6.0 0.03 0.12 0.08 100 1017.4
20210121152141 46 27 6.0 9.0 0.03 0.12 0.08 100 1017.4
20210121152019 46 332 6.0 9.0 0.03 0.12 0.08 100 1017.4
20210121151641 46 280 5.0 9.0 0.03 0.12 0.08 100 1017.4
20210121151140 46 1 6.0 7.0 0.03 0.12 0.08 100 1016.9
20210121151016 46 0 5.0 6.0 0.03 0.12 0.08 100 1016.9
20210121150636 46 359 5.0 6.0 0.03 0.12 0.08 100 1016.9
20210121150136 46 335 7.0 7.0 0.04 0.12 0.08 100 1016.9
20210121150024 46 0 3.0 3.0 0.04 0.12 0.08 100 1016.9
20210121145636 46 0 2.0 6.0 0.03 0.11 0.07 100 1017.0
20210121145135 47 0 3.0 4.0 0.04 0.11 0.07 100 1017.0
20210121145022 47 346 3.0 7.0 0.04 0.11 0.07 100 1017.0
20210121144635 47 294 5.0 7.0 0.04 0.11 0.07 100 1017.0
20210121144136 48 294 7.0 9.0 0.04 0.11 0.07 100 1016.9
20210121144031 48 312 2.0 7.0 0.04 0.11 0.07 100 1016.9
20210121143637 48 356 3.0 6.0 0.04 0.11 0.07 100 1016.9
20210121143135 49 347 3.0 10.0 0.03 0.10 0.07 100 1016.9
20210121143026 49 312 5.0 10.0 0.03 0.10 0.06 100 1016.9
20210121142638 49 323 4.0 6.0 0.03 0.10 0.06 100 1016.4
20210121142136 49 278 4.0 6.0 0.03 0.09 0.05 100 1016.4
20210121142019 49 322 3.0 5.0 0.03 0.09 0.05 100 1016.4
20210121141636 49 258 10.0 10.0 0.03 0.09 0.05 100 1016.4
20210121141138 48 312 1.0 5.0 0.04 0.09 0.05 100 1016.0
20210121141019 48 261 6.0 7.0 0.04 0.09 0.05 100 1016.0
20210121140636 48 241 6.0 9.0 0.04 0.09 0.05 100 1016.0
20210121140136 48 265 4.0 10.0 0.04 0.09 0.05 99 1016.0
20210121140026 48 239 4.0 6.0 0.04 0.09 0.05 99 1016.0
20210121135635 48 257 2.0 10.0 0.04 0.09 0.05 99 1016.3
20210121135136 48 237 5.0 6.0 0.03 0.08 0.04 99 1016.3
20210121135020 48 244 4.0 6.0 0.03 0.08 0.04 99 1016.3
20210121134636 48 226 8.0 10.0 0.03 0.08 0.04 99 1016.3
20210121134136 48 237 4.0 7.0 0.02 0.07 0.03 98 1016.3
20210121134019 48 230 3.0 9.0 0.02 0.07 0.03 98 1016.3
20210121133637 47 247 6.0 11.0 0.02 0.07 0.03 97 1016.3
20210121133137 47 237 9.0 9.0 0.02 0.07 0.03 96 1016.3
20210121133020 47 291 3.0 6.0 0.02 0.07 0.03 96 1016.3
20210121132641 47 263 5.0 10.0 0.02 0.07 0.03 95 1016.4
20210121132135 46 248 3.0 5.0 0.02 0.07 0.03 94 1016.4
20210121132023 46 253 2.0 3.0 0.02 0.07 0.03 94 1016.4
20210121131636 46 222 5.0 6.0 0.02 0.07 0.03 93 1016.4
20210121131137 46 243 3.0 9.0 0.01 0.06 0.02 92 1016.7
20210121131020 46 244 9.0 10.0 0.01 0.06 0.02 92 1016.7
20210121130635 46 285 1.0 5.0 0.01 0.06 0.02 91 1016.7
20210121130135 46 213 6.0 10.0 0.00 0.05 0.01 90 1016.7
20210121130023 46 220 9.0 9.0 0.00 0.05 0.01 89 1016.7
20210121125642 46 248 2.0 4.0 0.00 0.05 0.01 88 1016.7
20210121125143 46 199 2.0 6.0 0.00 0.05 0.01 87 1016.7
20210121125018 46 240 3.0 6.0 0.00 0.05 0.01 87 1016.7
20210121124637 46 237 4.0 7.0 0.00 0.05 0.01 87 1016.7
20210121124136 46 226 5.0 7.0 0.00 0.05 0.01 87 1016.8
20210121124027 46 247 7.0 7.0 0.00 0.05 0.01 87 1016.8
20210121123637 46 209 3.0 6.0 0.00 0.05 0.01 88 1016.8
20210121123138 45 240 4.0 12.0 0.00 0.05 0.01 88 1016.8
20210121123022 45 232 10.0 10.0 0.00 0.05 0.01 88 1016.8
20210121122637 45 226 7.0 8.0 0.00 0.05 0.01 88 1017.0
20210121122136 45 229 3.0 8.0 0.00 0.05 0.01 89 1017.0
20210121122020 45 241 5.0 7.0 0.00 0.05 0.01 89 1017.0
20210121121640 45 227 10.0 10.0 0.00 0.05 0.01 89 1017.0
20210121121146 45 217 6.0 9.0 0.00 0.05 0.01 90 1016.8
20210121121035 45 233 5.0 9.0 0.00 0.05 0.01 90 1016.8
20210121120747 44 205 5.0 10.0 0.00 0.05 0.01 90 1016.8
20210121120137 44 241 3.0 5.0 0.00 0.05 0.01 91 1016.8
20210121120026 44 208 4.0 10.0 0.00 0.05 0.01 91 1016.8
20210121115636 44 213 3.0 10.0 0.00 0.05 0.01 91 1017.0
20210121115142 44 172 4.0 7.0 0.00 0.05 0.01 91 1017.0
20210121115029 44 206 5.0 6.0 0.00 0.05 0.01 91 1017.0
20210121114637 44 224 10.0 11.0 0.00 0.05 0.01 91 1017.0
20210121114137 44 220 10.0 10.0 0.00 0.05 0.01 92 1017.1
20210121114021 44 195 5.0 8.0 0.00 0.05 0.01 92 1017.1
20210121113639 44 203 4.0 10.0 0.00 0.05 0.01 92 1017.1
20210121113139 44 239 5.0 7.0 0.01 0.05 0.01 92 1017.1
20210121113022 44 184 5.0 7.0 0.01 0.05 0.01 92 1017.1
20210121112639 44 222 4.0 9.0 0.01 0.05 0.01 92 1017.4
20210121112138 44 196 4.0 10.0 0.01 0.05 0.01 92 1017.4
20210121112029 44 213 5.0 10.0 0.01 0.05 0.01 92 1017.4
20210121111639 44 224 4.0 11.0 0.01 0.05 0.01 92 1017.4
20210121111139 44 212 4.0 8.0 0.01 0.05 0.01 92 1017.6
20210121111035 43 237 2.0 10.0 0.01 0.05 0.01 92 1017.6
20210121110636 43 188 3.0 9.0 0.01 0.05 0.01 92 1017.6
20210121110140 43 224 7.0 10.0 0.01 0.05 0.01 92 1017.6
20210121110022 43 213 5.0 10.0 0.01 0.05 0.01 92 1017.6
20210121105635 43 222 3.0 8.0 0.01 0.05 0.01 92 1017.6
20210121105136 43 224 8.0 10.0 0.01 0.05 0.01 93 1017.6
20210121105021 43 220 5.0 7.0 0.01 0.05 0.01 93 1017.6
20210121104636 43 200 4.0 7.0 0.01 0.05 0.01 93 1017.6
20210121104145 43 220 3.0 10.0 0.01 0.05 0.01 93 1017.6
20210121104018 43 212 4.0 8.0 0.01 0.05 0.01 93 1017.6
20210121103637 43 193 8.0 10.0 0.01 0.05 0.01 93 1017.6
20210121103136 43 210 2.0 6.0 0.01 0.05 0.01 93 1017.6
20210121103018 43 212 6.0 6.0 0.01 0.05 0.01 93 1017.6
20210121102636 43 217 3.0 5.0 0.00 0.04 0.00 93 1018.1
20210121102136 43 223 4.0 5.0 0.00 0.04 0.00 93 1018.1
20210121102021 43 220 3.0 7.0 0.00 0.04 0.00 93 1018.1
20210121101636 43 230 4.0 7.0 0.00 0.04 0.00 93 1018.1
20210121101137 42 200 6.0 7.0 0.00 0.04 0.00 94 1018.2
20210121101024 42 213 5.0 7.0 0.00 0.04 0.00 94 1018.2
20210121100637 42 216 5.0 5.0 0.00 0.04 0.00 94 1018.2
20210121100136 42 208 3.0 3.0 0.00 0.04 0.00 94 1018.2
20210121100029 42 208 3.0 6.0 0.00 0.04 0.00 94 1018.2
20210121095636 42 247 4.0 4.0 0.00 0.04 0.00 94 1018.2
20210121095139 42 210 4.0 5.0 0.00 0.04 0.00 94 1018.2
20210121095016 42 203 3.0 8.0 0.00 0.04 0.00 94 1018.2
20210121094639 42 208 5.0 7.0 0.00 0.04 0.00 94 1018.2
20210121094136 42 223 5.0 6.0 0.00 0.04 0.00 94 1018.2
20210121094018 42 206 3.0 6.0 0.00 0.04 0.00 94 1018.2
20210121093636 42 200 6.0 7.0 0.00 0.04 0.00 94 1018.2
20210121093135 42 215 4.0 6.0 0.00 0.04 0.00 94 1018.2
20210121093028 42 195 7.0 7.0 0.00 0.04 0.00 94 1018.2
20210121092637 42 184 3.0 3.0 0.00 0.04 0.00 94 1019.0
20210121092135 42 209 3.0 5.0 0.00 0.04 0.00 94 1019.0
20210121092020 42 217 3.0 5.0 0.00 0.04 0.00 94 1019.0
20210121091637 42 227 1.0 5.0 0.00 0.04 0.00 94 1019.0
20210121091137 41 202 3.0 3.0 0.00 0.04 0.00 94 1019.1
20210121091016 41 202 3.0 3.0 0.00 0.04 0.00 94 1019.1
20210121090635 41 200 4.0 4.0 0.00 0.04 0.00 94 1019.1
20210121090136 41 209 1.0 1.0 0.00 0.04 0.00 93 1019.1
20210121090023 41 209 1.0 2.0 0.00 0.04 0.00 93 1019.1
20210121085640 41 229 3.0 5.0 0.00 0.04 0.00 93 1019.2
20210121085137 41 185 2.0 6.0 0.00 0.04 0.00 93 1019.2
20210121085022 41 195 6.0 6.0 0.00 0.04 0.00 93 1019.2
20210121084639 41 202 5.0 5.0 0.00 0.04 0.00 93 1019.2
20210121084138 41 216 5.0 6.0 0.00 0.04 0.00 93 1019.1
20210121084028 41 195 4.0 6.0 0.00 0.04 0.00 93 1019.1
20210121083636 41 202 3.0 7.0 0.00 0.04 0.00 93 1019.1
20210121083143 41 200 4.0 7.0 0.00 0.04 0.00 93 1019.1
20210121083028 41 210 6.0 6.0 0.00 0.04 0.00 93 1019.1
20210121082636 41 191 3.0 10.0 0.00 0.04 0.00 93 1019.6
20210121082135 41 208 3.0 6.0 0.00 0.04 0.00 92 1019.6
20210121082033 41 191 5.0 6.0 0.00 0.04 0.00 92 1019.6
20210121081641 41 206 3.0 4.0 0.00 0.04 0.00 92 1019.6
20210121081135 41 191 2.0 5.0 0.00 0.04 0.00 92 1019.9
20210121081020 41 185 3.0 4.0 0.00 0.04 0.00 92 1019.9
20210121080635 41 176 2.0 2.0 0.00 0.04 0.00 92 1019.9
20210121080138 41 192 2.0 4.0 0.00 0.04 0.00 92 1019.9
20210121080031 41 186 3.0 3.0 0.00 0.04 0.00 91 1019.9
20210121075638 41 188 3.0 3.0 0.00 0.04 0.00 91 1020.1
20210121075136 41 198 1.0 2.0 0.00 0.04 0.00 91 1020.1
20210121075027 41 202 1.0 4.0 0.00 0.04 0.00 91 1020.1
20210121074639 41 181 2.0 4.0 0.00 0.04 0.00 91 1020.1
20210121074136 41 205 1.0 3.0 0.00 0.04 0.00 91 1020.4
20210121074022 41 182 1.0 5.0 0.00 0.04 0.00 91 1020.4
20210121073637 41 193 4.0 5.0 0.00 0.04 0.00 91 1020.4
20210121073137 41 202 3.0 3.0 0.00 0.04 0.00 91 1020.4
20210121073032 41 199 2.0 4.0 0.00 0.04 0.00 91 1020.4
20210121072638 41 215 2.0 5.0 0.00 0.04 0.00 91 1020.8
20210121072140 41 189 3.0 4.0 0.00 0.04 0.00 91 1020.8
20210121072020 41 220 3.0 5.0 0.00 0.04 0.00 91 1020.8
20210121071643 41 206 2.0 5.0 0.00 0.04 0.00 91 1020.8
20210121071138 41 209 3.0 3.0 0.00 0.04 0.00 90 1020.9
20210121071021 41 212 3.0 3.0 0.00 0.04 0.00 90 1020.9
20210121070646 41 220 1.0 5.0 0.00 0.04 0.00 90 1020.9
20210121070136 41 202 2.0 5.0 0.01 0.04 0.00 90 1020.9
20210121070036 41 220 2.0 3.0 0.01 0.04 0.00 90 1020.9
20210121065636 41 224 3.0 5.0 0.01 0.04 0.00 90 1021.0
20210121065136 41 213 2.0 5.0 0.01 0.04 0.00 90 1021.0
20210121065022 41 200 4.0 4.0 0.01 0.04 0.00 90 1021.0
20210121064643 41 202 2.0 6.0 0.01 0.04 0.00 90 1021.0
20210121064137 41 223 2.0 5.0 0.01 0.04 0.00 90 1021.4
20210121064023 41 203 3.0 4.0 0.01 0.04 0.00 89 1021.4
20210121063640 41 219 3.0 7.0 0.01 0.04 0.00 89 1021.4
20210121063141 41 199 4.0 4.0 0.01 0.04 0.00 89 1021.4
20210121063025 41 206 2.0 4.0 0.01 0.04 0.00 89 1021.4
20210121062642 41 203 3.0 3.0 0.01 0.04 0.00 89 1021.6
20210121062140 41 208 2.0 4.0 0.02 0.04 0.00 89 1021.6
20210121062036 41 205 2.0 3.0 0.02 0.04 0.00 89 1021.6
20210121061638 41 215 2.0 3.0 0.02 0.04 0.00 88 1021.6
20210121061136 41 208 1.0 3.0 0.02 0.04 0.00 88 1021.7
20210121061019 41 220 2.0 3.0 0.02 0.04 0.00 88 1021.7
20210121060635 41 216 1.0 2.0 0.02 0.04 0.00 88 1021.7
20210121060137 42 223 1.0 2.0 0.03 0.04 0.00 87 1021.7
20210121060025 42 223 1.0 3.0 0.03 0.04 0.04 88 1021.7
20210121055635 42 203 1.0 2.0 0.03 0.04 0.04 88 1022.5
20210121055141 42 233 3.0 3.0 0.02 0.03 0.04 87 1022.5
20210121055031 42 233 1.0 2.0 0.02 0.03 0.03 87 1022.5
20210121054636 42 246 2.0 3.0 0.02 0.03 0.03 87 1022.5
20210121054140 42 246 1.0 1.0 0.02 0.03 0.03 87 1022.6
20210121054025 42 246 2.0 3.0 0.02 0.03 0.03 86 1022.6
20210121053637 42 210 1.0 4.0 0.02 0.03 0.03 86 1022.6
20210121053138 42 199 1.0 3.0 0.02 0.03 0.03 86 1022.6
20210121053026 42 199 1.0 5.0 0.02 0.03 0.03 86 1022.6
20210121052637 42 232 3.0 4.0 0.02 0.03 0.03 86 1022.7
20210121052136 42 232 1.0 2.0 0.02 0.03 0.03 85 1022.7
20210121052026 42 224 3.0 3.0 0.02 0.03 0.03 85 1022.7
20210121051636 42 229 1.0 2.0 0.02 0.03 0.03 85 1022.7
20210121051137 43 232 1.0 2.0 0.02 0.02 0.02 82 1023.2
20210121051018 43 232 2.0 2.0 0.02 0.02 0.02 82 1023.2
20210121050636 43 244 1.0 2.0 0.02 0.02 0.02 79 1023.2
20210121050136 43 244 1.0 2.0 0.02 0.02 0.02 76 1023.2
20210121050026 43 239 2.0 3.0 0.02 0.02 0.02 76 1023.2
20210121045637 43 288 2.0 2.0 0.02 0.02 0.02 76 1023.5
20210121045137 43 295 1.0 1.0 0.01 0.01 0.01 74 1023.5
20210121045024 43 295 1.0 1.0 0.01 0.01 0.01 74 1023.5
20210121044636 43 295 3.0 4.0 0.01 0.01 0.01 73 1023.5
20210121044137 44 313 1.0 2.0 0.01 0.01 0.01 73 1023.5
20210121044020 44 313 2.0 3.0 0.01 0.01 0.01 72 1023.5
20210121043636 44 323 3.0 3.0 0.01 0.01 0.01 71 1023.5
20210121043138 44 299 3.0 3.0 0.01 0.01 0.01 69 1023.5
20210121043023 44 289 1.0 2.0 0.01 0.01 0.01 69 1023.5
20210121042637 44 281 2.0 2.0 0.01 0.01 0.01 68 1023.6
20210121042135 44 281 1.0 3.0 0.01 0.01 0.01 67 1023.6
20210121042020 44 277 2.0 2.0 0.01 0.01 0.01 68 1023.6
20210121041636 44 277 2.0 2.0 0.01 0.01 0.01 68 1023.6
20210121041135 44 233 0.0 1.0 0.01 0.01 0.01 69 1023.4
20210121041020 44 233 1.0 2.0 0.01 0.01 0.01 68 1023.4
20210121040637 44 233 2.0 2.0 0.01 0.01 0.01 69 1023.4
20210121040136 44 233 0.0 0.0 0.00 0.00 0.00 68 1023.4
20210121040019 44 233 0.0 0.0 0.00 0.00 0.00 68 1023.4
20210121035637 44 233 2.0 2.0 0.00 0.00 0.00 67 1023.3
20210121035135 44 268 2.0 2.0 0.00 0.00 0.00 66 1023.3
20210121035026 45 268 2.0 2.0 0.00 0.00 0.00 66 1023.3
20210121034636 45 268 1.0 1.0 0.00 0.00 0.00 62 1023.3
20210121034136 45 268 0.0 2.0 0.00 0.00 0.00 61 1023.5
20210121034020 45 268 2.0 2.0 0.00 0.00 0.00 61 1023.5
20210121033641 45 268 1.0 1.0 0.00 0.00 0.00 61 1023.5
20210121033135 45 319 1.0 1.0 0.00 0.00 0.00 61 1023.5
20210121033029 45 319 1.0 2.0 0.00 0.00 0.00 61 1023.5
20210121032635 45 319 1.0 1.0 0.00 0.00 0.00 62 1023.7
20210121032137 45 319 0.0 1.0 0.00 0.00 0.00 62 1023.7
20210121032022 45 319 0.0 2.0 0.00 0.00 0.00 62 1023.7
20210121031635 45 319 1.0 2.0 0.00 0.00 0.00 62 1023.7
20210121031136 45 319 1.0 2.0 0.00 0.00 0.00 62 1024.2
20210121031018 45 319 0.0 1.0 0.00 0.00 0.00 61 1024.2
20210121030636 45 319 2.0 2.0 0.00 0.00 0.00 61 1024.2
20210121030136 45 319 2.0 3.0 0.00 0.00 0.00 60 1024.2
20210121030029 46 319 2.0 3.0 0.00 0.00 0.00 59 1024.2
20210121025637 46 315 4.0 4.0 0.00 0.00 0.00 58 1024.5
20210121025136 46 322 2.0 3.0 0.00 0.00 0.00 57 1024.5
20210121025010 46 315 2.0 4.0 0.00 0.00 0.00 58 1024.5
20210121024639 46 316 3.0 3.0 0.00 0.00 0.00 57 1024.5
20210121024135 46 318 2.0 2.0 0.00 0.00 0.00 57 1024.5
20210121024021 46 318 2.0 3.0 0.00 0.00 0.00 57 1024.5
20210121023638 46 319 2.0 2.0 0.00 0.00 0.00 56 1024.5
20210121023136 46 302 3.0 3.0 0.00 0.00 0.00 55 1024.5
20210121023026 46 306 1.0 4.0 0.00 0.00 0.00 55 1024.5
20210121022635 46 304 1.0 3.0 0.00 0.00 0.00 55 1024.3
20210121022137 46 294 2.0 3.0 0.00 0.00 0.00 54 1024.3
20210121022011 46 295 3.0 3.0 0.00 0.00 0.00 54 1024.3
20210121021636 47 285 2.0 2.0 0.00 0.00 0.00 53 1024.3
20210121021137 47 302 1.0 2.0 0.00 0.00 0.00 52 1024.6
20210121021019 47 302 0.0 2.0 0.00 0.00 0.00 52 1024.6
20210121020636 47 306 1.0 2.0 0.00 0.00 0.00 51 1024.6
20210121020135 47 316 2.0 2.0 0.00 0.00 0.00 50 1024.6
20210121020020 47 323 0.0 1.0 0.00 0.00 0.00 50 1024.6
20210121015636 47 323 1.0 2.0 0.00 0.00 0.00 50 1024.7
20210121015136 47 298 1.0 4.0 0.00 0.00 0.00 49 1024.7
20210121015015 47 313 4.0 5.0 0.00 0.00 0.00 49 1024.7
20210121014636 47 311 4.0 4.0 0.00 0.00 0.00 49 1024.7
20210121014135 47 318 3.0 4.0 0.00 0.00 0.00 48 1024.9
20210121014014 47 333 3.0 4.0 0.00 0.00 0.00 48 1024.9
20210121013642 47 305 2.0 5.0 0.00 0.00 0.00 48 1024.9
20210121013137 47 308 2.0 5.0 0.00 0.00 0.00 48 1024.9
20210121013020 47 322 4.0 5.0 0.00 0.00 0.00 48 1024.9
20210121012636 47 311 2.0 3.0 0.00 0.00 0.00 48 1024.5
20210121012135 47 318 2.0 3.0 0.00 0.00 0.00 49 1024.5
20210121012017 47 323 2.0 4.0 0.00 0.00 0.00 49 1024.5
20210121011635 46 309 3.0 3.0 0.00 0.00 0.00 49 1024.5
20210121011137 46 308 2.0 3.0 0.00 0.00 0.00 49 1024.5
20210121011031 46 308 2.0 3.0 0.00 0.00 0.00 49 1024.5
20210121010636 46 308 1.0 3.0 0.00 0.00 0.00 49 1024.5
20210121010136 46 288 2.0 3.0 0.00 0.00 0.00 50 1024.5
20210121010028 46 288 2.0 2.0 0.00 0.00 0.00 50 1024.5
20210121005637 46 288 2.0 2.0 0.00 0.00 0.00 50 1024.4
20210121005137 46 288 2.0 2.0 0.00 0.00 0.00 50 1024.4
20210121005023 46 288 2.0 2.0 0.00 0.00 0.00 50 1024.4
20210121004638 46 288 2.0 2.0 0.00 0.00 0.00 50 1024.4
20210121004137 46 288 1.0 2.0 0.00 0.00 0.00 50 1024.6
20210121004022 46 288 1.0 2.0 0.00 0.00 0.00 50 1024.6
20210121003636 47 288 1.0 2.0 0.00 0.00 0.00 50 1024.6
20210121003135 47 288 1.0 1.0 0.00 0.00 0.00 49 1024.6
20210121003022 47 288 1.0 2.0 0.00 0.00 0.00 49 1024.6
20210121002638 47 288 2.0 2.0 0.00 0.00 0.00 49 1024.7
20210121002141 47 288 2.0 2.0 0.00 0.00 0.00 49 1024.7
20210121002018 47 288 1.0 2.0 0.00 0.00 0.00 49 1024.7
20210121001646 47 287 2.0 3.0 0.00 0.00 0.00 49 1024.7
20210121001142 47 287 2.0 3.0 0.00 0.00 0.00 49 1024.4
20210121001024 47 287 3.0 3.0 0.00 0.00 0.00 49 1024.4
20210121000636 47 287 2.0 2.0 0.00 0.00 0.00 49 1024.4
20210121000140 47 287 0.0 1.0 0.00 0.00 0.00 49 1024.4
20210121000022 47 287 1.0 1.0 0.00 0.00 0.00 49 1024.4
20210120235636 47 287 1.0 1.0 0.00 0.00 0.00 50 1024.6
20210120235137 47 287 0.0 1.0 0.00 0.00 0.00 50 1024.6
20210120235026 47 287 0.0 0.0 0.00 0.00 0.00 50 1024.6
20210120234640 47 287 0.0 0.0 0.00 0.00 0.00 50 1024.6
20210120234138 47 287 0.0 0.0 0.00 0.00 0.00 50 1024.9
20210120234017 47 287 0.0 0.0 0.00 0.00 0.00 50 1024.9
20210120233637 47 287 0.0 0.0 0.00 0.00 0.00 50 1024.9
20210120233138 47 287 0.0 1.0 0.00 0.00 0.00 50 1024.9
20210120233027 47 287 1.0 1.0 0.00 0.00 0.00 50 1024.9
20210120232637 48 287 0.0 0.0 0.00 0.00 0.00 50 1025.2
20210120232144 48 287 0.0 0.0 0.00 0.00 0.00 49 1025.2
20210120232018 48 287 0.0 1.0 0.00 0.00 0.00 49 1025.2
20210120231641 48 287 1.0 2.0 0.00 0.00 0.00 49 1025.2
20210120231138 48 287 0.0 2.0 0.00 0.00 0.00 49 1025.0
20210120231023 48 287 3.0 3.0 0.00 0.00 0.00 49 1025.0
20210120230637 48 287 1.0 2.0 0.00 0.00 0.00 49 1025.0
20210120230136 48 258 1.0 2.0 0.00 0.00 0.00 48 1025.0
20210120230025 48 253 2.0 2.0 0.00 0.00 0.00 48 1025.0
20210120225638 48 260 1.0 2.0 0.00 0.00 0.00 48 1025.1
20210120225138 48 278 0.0 1.0 0.00 0.00 0.00 48 1025.1
20210120225019 48 278 0.0 2.0 0.00 0.00 0.00 48 1025.1
20210120224635 48 281 0.0 1.0 0.00 0.00 0.00 48 1025.1
20210120224140 49 250 3.0 3.0 0.00 0.00 0.00 48 1025.2
20210120224022 49 250 3.0 3.0 0.00 0.00 0.00 48 1025.2
20210120223635 49 240 2.0 3.0 0.00 0.00 0.00 48 1025.2
20210120223141 49 261 3.0 3.0 0.00 0.00 0.00 48 1025.2
20210120223020 49 265 0.0 1.0 0.00 0.00 0.00 48 1025.2
20210120222637 49 263 2.0 2.0 0.00 0.00 0.00 47 1025.1
20210120222135 49 288 2.0 4.0 0.00 0.00 0.00 47 1025.1
20210120222019 49 288 2.0 3.0 0.00 0.00 0.00 47 1025.1
20210120221637 49 318 0.0 3.0 0.00 0.00 0.00 46 1025.1
20210120221138 49 298 3.0 5.0 0.00 0.00 0.00 46 1025.2
20210120221022 49 315 4.0 5.0 0.00 0.00 0.00 47 1025.2
20210120220636 49 232 2.0 4.0 0.00 0.00 0.00 46 1025.2
20210120220136 49 301 2.0 3.0 0.00 0.00 0.00 45 1025.2
20210120220027 49 280 0.0 2.0 0.00 0.00 0.00 46 1025.2
20210120215635 49 292 1.0 3.0 0.00 0.00 0.00 46 1025.1
20210120215137 49 329 3.0 4.0 0.00 0.00 0.00 45 1025.1
20210120215018 49 320 3.0 5.0 0.00 0.00 0.00 46 1025.1
20210120214636 49 285 1.0 3.0 0.00 0.00 0.00 46 1025.1
20210120214138 49 301 3.0 3.0 0.00 0.00 0.00 45 1025.2
20210120214020 49 296 2.0 3.0 0.00 0.00 0.00 45 1025.2
20210120213636 49 289 4.0 5.0 0.00 0.00 0.00 45 1025.2
20210120213135 49 343 1.0 5.0 0.00 0.00 0.00 45 1025.2
20210120213031 49 298 4.0 6.0 0.00 0.00 0.00 45 1025.2
20210120212638 49 258 3.0 6.0 0.00 0.00 0.00 44 1025.2
20210120212136 49 278 3.0 6.0 0.00 0.00 0.00 44 1025.2
20210120212016 49 270 2.0 5.0 0.00 0.00 0.00 44 1025.2
20210120211635 50 295 4.0 6.0 0.00 0.00 0.00 44 1025.2
20210120211137 49 340 3.0 3.0 0.00 0.00 0.00 45 1025.3
20210120211020 49 319 3.0 3.0 0.00 0.00 0.00 45 1025.3
20210120210637 49 319 1.0 3.0 0.00 0.00 0.00 45 1025.3
20210120210139 49 294 1.0 5.0 0.00 0.00 0.00 43 1025.3
20210120210023 49 305 5.0 6.0 0.00 0.00 0.00 43 1025.3
20210120205638 49 329 3.0 3.0 0.00 0.00 0.00 43 1025.3
20210120205136 49 296 1.0 3.0 0.00 0.00 0.00 45 1025.3
20210120205020 49 322 1.0 3.0 0.00 0.00 0.00 45 1025.3
20210120204638 49 295 4.0 4.0 0.00 0.00 0.00 45 1025.3
20210120204135 49 340 5.0 5.0 0.00 0.00 0.00 45 1025.6
20210120204025 49 318 2.0 5.0 0.00 0.00 0.00 44 1025.6
20210120203636 49 359 1.0 3.0 0.00 0.00 0.00 44 1025.6
20210120203143 49 326 7.0 9.0 0.00 0.00 0.00 42 1025.6
20210120203021 50 323 5.0 8.0 0.00 0.00 0.00 42 1025.6
20210120202636 49 0 2.0 4.0 0.00 0.00 0.00 45 1025.5
20210120202137 49 295 1.0 4.0 0.00 0.00 0.00 43 1025.5
20210120202026 49 292 5.0 6.0 0.00 0.00 0.00 44 1025.5